sensor_id;sensor_type;location;lat;lon;timestamp;temperature;humidity
6964;DHT22;3522;50.856;7.278;2023-10-31T00:00:09;11.50;99.90
6964;DHT22;3522;50.856;7.278;2023-10-31T00:02:38;11.50;99.90
6964;DHT22;3522;50.856;7.278;2023-10-31T00:05:05;11.40;99.90
6964;DHT22;3522;50.856;7.278;2023-10-31T00:07:32;11.40;99.90
6964;DHT22;3522;50.856;7.278;2023-10-31T00:09:58;11.40;99.90
6964;DHT22;3522;50.856;7.278;2023-10-31T00:12:25;11.40;99.90
6964;DHT22;3522;50.856;7.278;2023-10-31T00:14:51;11.40;99.90
6964;DHT22;3522;50.856;7.278;2023-10-31T00:17:18;11.40;99.90
6964;DHT22;3522;50.856;7.278;2023-10-31T00:19:46;11.40;99.90
6964;DHT22;3522;50.856;7.278;2023-10-31T00:22:13;11.40;99.90
6964;DHT22;3522;50.856;7.278;2023-10-31T00:24:39;11.30;99.90
6964;DHT22;3522;50.856;7.278;2023-10-31T00:27:06;11.40;99.90
6964;DHT22;3522;50.856;7.278;2023-10-31T00:29:32;11.40;99.90
6964;DHT22;3522;50.856;7.278;2023-10-31T00:31:59;11.40;99.90
6964;DHT22;3522;50.856;7.278;2023-10-31T00:34:25;11.40;99.90
6964;DHT22;3522;50.856;7.278;2023-10-31T00:36:53;11.40;99.90
6964;DHT22;3522;50.856;7.278;2023-10-31T00:39:20;11.40;99.90
6964;DHT22;3522;50.856;7.278;2023-10-31T00:41:47;11.40;99.90
6964;DHT22;3522;50.856;7.278;2023-10-31T00:44:13;11.30;99.90
6964;DHT22;3522;50.856;7.278;2023-10-31T00:46:40;11.40;99.90
6964;DHT22;3522;50.856;7.278;2023-10-31T00:49:06;11.40;99.90
6964;DHT22;3522;50.856;7.278;2023-10-31T00:51:33;11.30;99.90
6964;DHT22;3522;50.856;7.278;2023-10-31T00:54:01;11.30;99.90
6964;DHT22;3522;50.856;7.278;2023-10-31T00:56:27;11.30;99.90
6964;DHT22;3522;50.856;7.278;2023-10-31T00:58:54;11.20;99.90
6964;DHT22;3522;50.856;7.278;2023-10-31T01:01:21;11.30;99.90
6964;DHT22;3522;50.856;7.278;2023-10-31T01:03:47;11.30;99.90
6964;DHT22;3522;50.856;7.278;2023-10-31T01:06:14;11.30;99.90
6964;DHT22;3522;50.856;7.278;2023-10-31T01:08:40;11.30;99.90
6964;DHT22;3522;50.856;7.278;2023-10-31T01:11:08;11.30;99.90
6964;DHT22;3522;50.856;7.278;2023-10-31T01:13:35;11.30;99.90
6964;DHT22;3522;50.856;7.278;2023-10-31T01:16:01;11.30;99.90
6964;DHT22;3522;50.856;7.278;2023-10-31T01:18:28;11.30;99.90
6964;DHT22;3522;50.856;7.278;2023-10-31T01:20:54;11.30;99.90
6964;DHT22;3522;50.856;7.278;2023-10-31T01:23:21;11.20;99.90
6964;DHT22;3522;50.856;7.278;2023-10-31T01:25:48;11.30;99.90
6964;DHT22;3522;50.856;7.278;2023-10-31T01:28:16;11.10;99.90
6964;DHT22;3522;50.856;7.278;2023-10-31T01:30:43;11.10;99.90
6964;DHT22;3522;50.856;7.278;2023-10-31T01:33:09;11.10;99.90
6964;DHT22;3522;50.856;7.278;2023-10-31T01:35:36;11.00;99.90
6964;DHT22;3522;50.856;7.278;2023-10-31T01:38:02;11.00;99.90
6964;DHT22;3522;50.856;7.278;2023-10-31T01:40:29;11.00;99.90
6964;DHT22;3522;50.856;7.278;2023-10-31T01:42:56;10.90;99.90
6964;DHT22;3522;50.856;7.278;2023-10-31T01:45:23;10.90;99.90
6964;DHT22;3522;50.856;7.278;2023-10-31T01:47:50;10.80;99.90
6964;DHT22;3522;50.856;7.278;2023-10-31T01:50:17;10.80;99.90
6964;DHT22;3522;50.856;7.278;2023-10-31T01:52:44;10.70;99.90
6964;DHT22;3522;50.856;7.278;2023-10-31T01:55:10;10.60;99.90
6964;DHT22;3522;50.856;7.278;2023-10-31T01:57:37;10.60;99.90
6964;DHT22;3522;50.856;7.278;2023-10-31T02:00:04;10.60;99.90
6964;DHT22;3522;50.856;7.278;2023-10-31T02:02:33;10.50;99.90
6964;DHT22;3522;50.856;7.278;2023-10-31T02:05:00;10.50;99.90
6964;DHT22;3522;50.856;7.278;2023-10-31T02:07:27;10.50;99.90
6964;DHT22;3522;50.856;7.278;2023-10-31T02:09:53;10.50;99.90
6964;DHT22;3522;50.856;7.278;2023-10-31T02:12:33;10.40;99.90
6964;DHT22;3522;50.856;7.278;2023-10-31T02:14:59;10.40;99.90
6964;DHT22;3522;50.856;7.278;2023-10-31T02:17:26;10.40;99.90
6964;DHT22;3522;50.856;7.278;2023-10-31T02:19:54;10.30;99.90
6964;DHT22;3522;50.856;7.278;2023-10-31T02:22:22;10.30;99.90
6964;DHT22;3522;50.856;7.278;2023-10-31T02:24:49;10.30;99.90
6964;DHT22;3522;50.856;7.278;2023-10-31T02:27:15;10.30;99.90
6964;DHT22;3522;50.856;7.278;2023-10-31T02:29:42;10.30;99.90
6964;DHT22;3522;50.856;7.278;2023-10-31T02:32:08;10.20;99.90
6964;DHT22;3522;50.856;7.278;2023-10-31T02:34:35;10.20;99.90
6964;DHT22;3522;50.856;7.278;2023-10-31T02:37:02;10.20;99.90
6964;DHT22;3522;50.856;7.278;2023-10-31T02:39:30;10.10;99.90
6964;DHT22;3522;50.856;7.278;2023-10-31T02:41:56;10.10;99.90
6964;DHT22;3522;50.856;7.278;2023-10-31T02:44:23;10.10;99.90
6964;DHT22;3522;50.856;7.278;2023-10-31T02:46:50;10.10;99.90
6964;DHT22;3522;50.856;7.278;2023-10-31T02:49:16;10.10;99.90
6964;DHT22;3522;50.856;7.278;2023-10-31T02:51:43;10.10;99.90
6964;DHT22;3522;50.856;7.278;2023-10-31T02:54:10;10.00;99.90
6964;DHT22;3522;50.856;7.278;2023-10-31T02:56:37;10.00;99.90
6964;DHT22;3522;50.856;7.278;2023-10-31T02:59:04;10.00;99.90
6964;DHT22;3522;50.856;7.278;2023-10-31T03:01:31;10.00;99.90
6964;DHT22;3522;50.856;7.278;2023-10-31T03:03:57;10.00;99.90
6964;DHT22;3522;50.856;7.278;2023-10-31T03:06:24;10.00;99.90
6964;DHT22;3522;50.856;7.278;2023-10-31T03:08:50;10.10;99.90
6964;DHT22;3522;50.856;7.278;2023-10-31T03:11:20;10.10;99.90
6964;DHT22;3522;50.856;7.278;2023-10-31T03:13:48;10.00;99.90
6964;DHT22;3522;50.856;7.278;2023-10-31T03:16:15;10.00;99.90
6964;DHT22;3522;50.856;7.278;2023-10-31T03:18:41;10.00;99.90
6964;DHT22;3522;50.856;7.278;2023-10-31T03:21:08;10.00;99.90
6964;DHT22;3522;50.856;7.278;2023-10-31T03:23:34;10.00;99.90
6964;DHT22;3522;50.856;7.278;2023-10-31T03:26:01;10.00;99.90
6964;DHT22;3522;50.856;7.278;2023-10-31T03:28:28;10.00;99.90
6964;DHT22;3522;50.856;7.278;2023-10-31T03:30:56;10.00;99.90
6964;DHT22;3522;50.856;7.278;2023-10-31T03:33:22;10.00;99.90
6964;DHT22;3522;50.856;7.278;2023-10-31T03:35:49;10.00;99.90
6964;DHT22;3522;50.856;7.278;2023-10-31T03:38:15;10.00;99.90
6964;DHT22;3522;50.856;7.278;2023-10-31T03:40:42;10.00;99.90
6964;DHT22;3522;50.856;7.278;2023-10-31T03:43:08;10.00;99.90
6964;DHT22;3522;50.856;7.278;2023-10-31T03:45:35;10.10;99.90
6964;DHT22;3522;50.856;7.278;2023-10-31T03:48:03;10.10;99.90
6964;DHT22;3522;50.856;7.278;2023-10-31T03:50:30;10.10;99.90
6964;DHT22;3522;50.856;7.278;2023-10-31T03:52:57;10.10;99.90
6964;DHT22;3522;50.856;7.278;2023-10-31T03:55:23;10.10;99.90
6964;DHT22;3522;50.856;7.278;2023-10-31T03:57:50;10.10;99.90
6964;DHT22;3522;50.856;7.278;2023-10-31T04:00:17;10.10;99.90
6964;DHT22;3522;50.856;7.278;2023-10-31T04:02:43;10.10;99.90
6964;DHT22;3522;50.856;7.278;2023-10-31T04:05:11;10.10;99.90
6964;DHT22;3522;50.856;7.278;2023-10-31T04:07:38;10.10;99.90
6964;DHT22;3522;50.856;7.278;2023-10-31T04:10:05;10.20;99.90
6964;DHT22;3522;50.856;7.278;2023-10-31T04:12:32;10.10;99.90
6964;DHT22;3522;50.856;7.278;2023-10-31T04:14:59;10.10;99.90
6964;DHT22;3522;50.856;7.278;2023-10-31T04:17:26;10.10;99.90
6964;DHT22;3522;50.856;7.278;2023-10-31T04:19:52;10.10;99.90
6964;DHT22;3522;50.856;7.278;2023-10-31T04:22:20;10.10;99.90
6964;DHT22;3522;50.856;7.278;2023-10-31T04:24:46;10.10;99.90
6964;DHT22;3522;50.856;7.278;2023-10-31T04:27:12;10.10;99.90
6964;DHT22;3522;50.856;7.278;2023-10-31T04:29:39;10.10;99.90
6964;DHT22;3522;50.856;7.278;2023-10-31T04:32:06;10.10;99.90
6964;DHT22;3522;50.856;7.278;2023-10-31T04:34:32;10.10;99.90
6964;DHT22;3522;50.856;7.278;2023-10-31T04:36:59;10.20;99.90
6964;DHT22;3522;50.856;7.278;2023-10-31T04:39:27;10.20;99.90
6964;DHT22;3522;50.856;7.278;2023-10-31T04:41:53;10.20;99.90
6964;DHT22;3522;50.856;7.278;2023-10-31T04:44:20;10.20;99.90
6964;DHT22;3522;50.856;7.278;2023-10-31T04:46:47;10.20;99.90
6964;DHT22;3522;50.856;7.278;2023-10-31T04:49:13;10.20;99.90
6964;DHT22;3522;50.856;7.278;2023-10-31T04:51:40;10.20;99.90
6964;DHT22;3522;50.856;7.278;2023-10-31T04:54:07;10.20;99.90
6964;DHT22;3522;50.856;7.278;2023-10-31T04:56:35;10.20;99.90
6964;DHT22;3522;50.856;7.278;2023-10-31T04:59:02;10.20;99.90
6964;DHT22;3522;50.856;7.278;2023-10-31T05:01:28;10.20;99.90
6964;DHT22;3522;50.856;7.278;2023-10-31T05:03:55;10.20;99.90
6964;DHT22;3522;50.856;7.278;2023-10-31T05:06:22;10.20;99.90
6964;DHT22;3522;50.856;7.278;2023-10-31T05:08:49;10.20;99.90
6964;DHT22;3522;50.856;7.278;2023-10-31T05:11:16;10.20;99.90
6964;DHT22;3522;50.856;7.278;2023-10-31T05:13:44;10.30;99.90
6964;DHT22;3522;50.856;7.278;2023-10-31T05:16:11;10.30;99.90
6964;DHT22;3522;50.856;7.278;2023-10-31T05:18:37;10.30;99.90
6964;DHT22;3522;50.856;7.278;2023-10-31T05:21:04;10.40;99.90
6964;DHT22;3522;50.856;7.278;2023-10-31T05:23:31;10.30;99.90
6964;DHT22;3522;50.856;7.278;2023-10-31T05:25:58;10.30;99.90
6964;DHT22;3522;50.856;7.278;2023-10-31T05:28:24;10.30;99.90
6964;DHT22;3522;50.856;7.278;2023-10-31T05:30:52;10.30;99.90
6964;DHT22;3522;50.856;7.278;2023-10-31T05:33:19;10.40;99.90
6964;DHT22;3522;50.856;7.278;2023-10-31T05:35:45;10.30;99.90
6964;DHT22;3522;50.856;7.278;2023-10-31T05:38:12;10.30;99.90
6964;DHT22;3522;50.856;7.278;2023-10-31T05:40:38;10.30;99.90
6964;DHT22;3522;50.856;7.278;2023-10-31T05:43:05;10.40;99.90
6964;DHT22;3522;50.856;7.278;2023-10-31T05:45:31;10.30;99.90
6964;DHT22;3522;50.856;7.278;2023-10-31T05:48:00;10.30;99.90
6964;DHT22;3522;50.856;7.278;2023-10-31T05:50:27;10.40;99.90
6964;DHT22;3522;50.856;7.278;2023-10-31T05:52:53;10.40;99.90
6964;DHT22;3522;50.856;7.278;2023-10-31T05:55:20;10.30;99.90
6964;DHT22;3522;50.856;7.278;2023-10-31T05:57:46;10.30;99.90
6964;DHT22;3522;50.856;7.278;2023-10-31T06:00:13;10.40;99.90
6964;DHT22;3522;50.856;7.278;2023-10-31T06:02:40;10.40;99.90
6964;DHT22;3522;50.856;7.278;2023-10-31T06:05:08;10.40;99.90
6964;DHT22;3522;50.856;7.278;2023-10-31T06:07:35;10.40;99.90
6964;DHT22;3522;50.856;7.278;2023-10-31T06:10:01;10.40;99.90
6964;DHT22;3522;50.856;7.278;2023-10-31T06:12:28;10.40;99.90
6964;DHT22;3522;50.856;7.278;2023-10-31T06:14:55;10.40;99.90
6964;DHT22;3522;50.856;7.278;2023-10-31T06:17:22;10.40;99.90
6964;DHT22;3522;50.856;7.278;2023-10-31T06:19:50;10.40;99.90
6964;DHT22;3522;50.856;7.278;2023-10-31T06:22:18;10.40;99.90
6964;DHT22;3522;50.856;7.278;2023-10-31T06:24:44;10.40;99.90
6964;DHT22;3522;50.856;7.278;2023-10-31T06:27:11;10.40;99.90
6964;DHT22;3522;50.856;7.278;2023-10-31T06:29:37;10.40;99.90
6964;DHT22;3522;50.856;7.278;2023-10-31T06:32:04;10.40;99.90
6964;DHT22;3522;50.856;7.278;2023-10-31T06:34:31;10.40;99.90
6964;DHT22;3522;50.856;7.278;2023-10-31T06:36:58;10.40;99.90
6964;DHT22;3522;50.856;7.278;2023-10-31T06:39:25;10.40;99.90
6964;DHT22;3522;50.856;7.278;2023-10-31T06:41:54;10.40;99.90
6964;DHT22;3522;50.856;7.278;2023-10-31T06:44:20;10.40;99.90
6964;DHT22;3522;50.856;7.278;2023-10-31T06:46:47;10.40;99.90
6964;DHT22;3522;50.856;7.278;2023-10-31T06:49:13;10.40;99.90
6964;DHT22;3522;50.856;7.278;2023-10-31T06:51:40;10.40;99.90
6964;DHT22;3522;50.856;7.278;2023-10-31T06:54:06;10.40;99.90
6964;DHT22;3522;50.856;7.278;2023-10-31T06:56:34;10.40;99.90
6964;DHT22;3522;50.856;7.278;2023-10-31T06:59:01;10.40;99.90
6964;DHT22;3522;50.856;7.278;2023-10-31T07:01:27;10.30;99.90
6964;DHT22;3522;50.856;7.278;2023-10-31T07:03:54;10.30;99.90
6964;DHT22;3522;50.856;7.278;2023-10-31T07:06:21;10.30;99.90
6964;DHT22;3522;50.856;7.278;2023-10-31T07:08:47;10.30;99.90
6964;DHT22;3522;50.856;7.278;2023-10-31T07:11:14;10.30;99.90
6964;DHT22;3522;50.856;7.278;2023-10-31T07:13:42;10.40;99.90
6964;DHT22;3522;50.856;7.278;2023-10-31T07:16:07;10.30;99.90
6964;DHT22;3522;50.856;7.278;2023-10-31T07:18:34;10.30;99.90
6964;DHT22;3522;50.856;7.278;2023-10-31T07:21:01;10.30;99.90
6964;DHT22;3522;50.856;7.278;2023-10-31T07:23:27;10.30;99.90
6964;DHT22;3522;50.856;7.278;2023-10-31T07:25:54;10.30;99.90
6964;DHT22;3522;50.856;7.278;2023-10-31T07:28:20;10.30;99.90
6964;DHT22;3522;50.856;7.278;2023-10-31T07:30:49;10.40;99.90
6964;DHT22;3522;50.856;7.278;2023-10-31T07:33:15;10.40;99.90
6964;DHT22;3522;50.856;7.278;2023-10-31T07:35:42;10.40;99.90
6964;DHT22;3522;50.856;7.278;2023-10-31T07:38:09;10.40;99.90
6964;DHT22;3522;50.856;7.278;2023-10-31T07:40:36;10.40;99.90
6964;DHT22;3522;50.856;7.278;2023-10-31T07:43:02;10.40;99.90
6964;DHT22;3522;50.856;7.278;2023-10-31T07:45:29;10.40;99.90
6964;DHT22;3522;50.856;7.278;2023-10-31T07:47:57;10.40;99.90
6964;DHT22;3522;50.856;7.278;2023-10-31T07:50:23;10.50;99.90
6964;DHT22;3522;50.856;7.278;2023-10-31T07:52:50;10.50;99.90
6964;DHT22;3522;50.856;7.278;2023-10-31T07:55:18;10.50;99.90
6964;DHT22;3522;50.856;7.278;2023-10-31T07:57:44;10.50;99.90
6964;DHT22;3522;50.856;7.278;2023-10-31T08:00:11;10.60;99.90
6964;DHT22;3522;50.856;7.278;2023-10-31T08:02:38;10.60;99.90
6964;DHT22;3522;50.856;7.278;2023-10-31T08:05:06;10.60;99.90
6964;DHT22;3522;50.856;7.278;2023-10-31T08:07:33;10.60;99.90
6964;DHT22;3522;50.856;7.278;2023-10-31T08:10:00;10.60;99.90
6964;DHT22;3522;50.856;7.278;2023-10-31T08:12:26;10.70;99.90
6964;DHT22;3522;50.856;7.278;2023-10-31T08:14:53;10.60;99.90
6964;DHT22;3522;50.856;7.278;2023-10-31T08:17:32;10.60;99.90
6964;DHT22;3522;50.856;7.278;2023-10-31T08:19:58;10.60;99.90
6964;DHT22;3522;50.856;7.278;2023-10-31T08:22:28;10.70;99.90
6964;DHT22;3522;50.856;7.278;2023-10-31T08:24:55;10.70;99.90
6964;DHT22;3522;50.856;7.278;2023-10-31T08:27:21;10.70;99.90
6964;DHT22;3522;50.856;7.278;2023-10-31T08:29:48;10.70;99.90
6964;DHT22;3522;50.856;7.278;2023-10-31T08:32:14;10.80;99.90
6964;DHT22;3522;50.856;7.278;2023-10-31T08:34:41;10.80;99.90
6964;DHT22;3522;50.856;7.278;2023-10-31T08:37:08;10.80;99.90
6964;DHT22;3522;50.856;7.278;2023-10-31T08:39:36;11.00;99.90
6964;DHT22;3522;50.856;7.278;2023-10-31T08:42:02;10.90;99.90
6964;DHT22;3522;50.856;7.278;2023-10-31T08:44:29;10.90;99.90
6964;DHT22;3522;50.856;7.278;2023-10-31T08:46:56;10.90;99.90
6964;DHT22;3522;50.856;7.278;2023-10-31T08:49:22;10.90;99.90
6964;DHT22;3522;50.856;7.278;2023-10-31T08:51:49;10.90;99.90
6964;DHT22;3522;50.856;7.278;2023-10-31T08:54:15;11.00;99.90
6964;DHT22;3522;50.856;7.278;2023-10-31T08:56:42;10.90;99.90
6964;DHT22;3522;50.856;7.278;2023-10-31T08:59:09;11.00;99.90
6964;DHT22;3522;50.856;7.278;2023-10-31T09:01:36;11.00;99.90
6964;DHT22;3522;50.856;7.278;2023-10-31T09:04:02;11.00;99.90
6964;DHT22;3522;50.856;7.278;2023-10-31T09:06:29;11.00;99.90
6964;DHT22;3522;50.856;7.278;2023-10-31T09:08:55;11.00;99.90
6964;DHT22;3522;50.856;7.278;2023-10-31T09:11:22;11.00;99.90
6964;DHT22;3522;50.856;7.278;2023-10-31T09:13:50;11.00;99.90
6964;DHT22;3522;50.856;7.278;2023-10-31T09:16:16;11.00;99.90
6964;DHT22;3522;50.856;7.278;2023-10-31T09:18:43;10.90;99.90
6964;DHT22;3522;50.856;7.278;2023-10-31T09:21:10;11.00;99.90
6964;DHT22;3522;50.856;7.278;2023-10-31T09:23:37;11.00;99.90
6964;DHT22;3522;50.856;7.278;2023-10-31T09:26:03;11.00;99.90
6964;DHT22;3522;50.856;7.278;2023-10-31T09:28:30;11.00;99.90
6964;DHT22;3522;50.856;7.278;2023-10-31T09:30:58;11.00;99.90
6964;DHT22;3522;50.856;7.278;2023-10-31T09:33:27;11.00;99.90
6964;DHT22;3522;50.856;7.278;2023-10-31T09:35:53;11.00;99.90
6964;DHT22;3522;50.856;7.278;2023-10-31T09:38:20;11.00;99.90
6964;DHT22;3522;50.856;7.278;2023-10-31T09:40:46;11.00;99.90
6964;DHT22;3522;50.856;7.278;2023-10-31T09:43:13;11.00;99.90
6964;DHT22;3522;50.856;7.278;2023-10-31T09:45:39;11.00;99.90
6964;DHT22;3522;50.856;7.278;2023-10-31T09:48:08;11.10;99.90
6964;DHT22;3522;50.856;7.278;2023-10-31T09:50:35;11.00;99.90
6964;DHT22;3522;50.856;7.278;2023-10-31T09:53:02;11.10;99.90
6964;DHT22;3522;50.856;7.278;2023-10-31T09:55:30;11.10;99.90
6964;DHT22;3522;50.856;7.278;2023-10-31T09:57:57;11.10;99.90
6964;DHT22;3522;50.856;7.278;2023-10-31T10:00:23;11.10;99.90
6964;DHT22;3522;50.856;7.278;2023-10-31T10:02:50;11.20;99.90
6964;DHT22;3522;50.856;7.278;2023-10-31T10:05:18;11.20;99.90
6964;DHT22;3522;50.856;7.278;2023-10-31T10:07:46;11.20;99.90
6964;DHT22;3522;50.856;7.278;2023-10-31T10:10:12;11.20;99.90
6964;DHT22;3522;50.856;7.278;2023-10-31T10:12:41;11.10;99.90
6964;DHT22;3522;50.856;7.278;2023-10-31T10:15:07;11.20;99.90
6964;DHT22;3522;50.856;7.278;2023-10-31T10:17:34;11.30;99.90
6964;DHT22;3522;50.856;7.278;2023-10-31T10:20:07;11.40;99.90
6964;DHT22;3522;50.856;7.278;2023-10-31T10:22:37;11.40;99.90
6964;DHT22;3522;50.856;7.278;2023-10-31T10:25:05;11.40;99.90
6964;DHT22;3522;50.856;7.278;2023-10-31T10:27:32;11.50;99.90
6964;DHT22;3522;50.856;7.278;2023-10-31T10:29:59;11.50;99.90
6964;DHT22;3522;50.856;7.278;2023-10-31T10:32:25;11.60;99.90
6964;DHT22;3522;50.856;7.278;2023-10-31T10:34:52;11.80;99.90
6964;DHT22;3522;50.856;7.278;2023-10-31T10:37:18;11.80;99.90
6964;DHT22;3522;50.856;7.278;2023-10-31T10:39:47;11.90;99.90
6964;DHT22;3522;50.856;7.278;2023-10-31T10:42:16;12.10;99.90
6964;DHT22;3522;50.856;7.278;2023-10-31T10:44:44;12.20;99.90
6964;DHT22;3522;50.856;7.278;2023-10-31T10:47:13;12.50;99.90
6964;DHT22;3522;50.856;7.278;2023-10-31T10:49:41;12.70;99.90
6964;DHT22;3522;50.856;7.278;2023-10-31T10:52:12;12.90;99.90
6964;DHT22;3522;50.856;7.278;2023-10-31T10:54:42;12.90;99.90
6964;DHT22;3522;50.856;7.278;2023-10-31T10:57:14;13.20;99.90
6964;DHT22;3522;50.856;7.278;2023-10-31T10:59:41;13.30;99.90
6964;DHT22;3522;50.856;7.278;2023-10-31T11:02:08;13.40;99.90
6964;DHT22;3522;50.856;7.278;2023-10-31T11:04:36;13.40;99.90
6964;DHT22;3522;50.856;7.278;2023-10-31T11:07:02;13.50;99.90
6964;DHT22;3522;50.856;7.278;2023-10-31T11:09:29;13.50;99.90
6964;DHT22;3522;50.856;7.278;2023-10-31T11:11:56;13.50;99.90
6964;DHT22;3522;50.856;7.278;2023-10-31T11:14:25;13.40;99.90
6964;DHT22;3522;50.856;7.278;2023-10-31T11:16:52;13.40;99.90
6964;DHT22;3522;50.856;7.278;2023-10-31T11:19:19;13.30;99.90
6964;DHT22;3522;50.856;7.278;2023-10-31T11:21:53;13.30;99.90
6964;DHT22;3522;50.856;7.278;2023-10-31T11:24:21;13.30;99.90
6964;DHT22;3522;50.856;7.278;2023-10-31T11:26:51;13.20;99.90
6964;DHT22;3522;50.856;7.278;2023-10-31T11:29:17;13.20;99.90
6964;DHT22;3522;50.856;7.278;2023-10-31T11:31:46;13.20;99.90
6964;DHT22;3522;50.856;7.278;2023-10-31T11:34:12;13.20;99.90
6964;DHT22;3522;50.856;7.278;2023-10-31T11:36:41;13.20;99.90
6964;DHT22;3522;50.856;7.278;2023-10-31T11:39:11;13.30;99.90
6964;DHT22;3522;50.856;7.278;2023-10-31T11:41:39;13.40;99.90
6964;DHT22;3522;50.856;7.278;2023-10-31T11:44:06;13.40;99.90
6964;DHT22;3522;50.856;7.278;2023-10-31T11:46:33;13.40;99.90
6964;DHT22;3522;50.856;7.278;2023-10-31T11:49:01;13.40;99.90
6964;DHT22;3522;50.856;7.278;2023-10-31T11:51:29;13.40;99.90
6964;DHT22;3522;50.856;7.278;2023-10-31T11:53:56;13.30;99.90
6964;DHT22;3522;50.856;7.278;2023-10-31T11:56:22;13.30;99.90
6964;DHT22;3522;50.856;7.278;2023-10-31T11:58:55;13.40;99.90
6964;DHT22;3522;50.856;7.278;2023-10-31T12:01:22;13.30;99.90
6964;DHT22;3522;50.856;7.278;2023-10-31T12:03:49;13.30;99.90
6964;DHT22;3522;50.856;7.278;2023-10-31T12:06:18;13.30;99.90
6964;DHT22;3522;50.856;7.278;2023-10-31T12:08:47;13.30;99.90
6964;DHT22;3522;50.856;7.278;2023-10-31T12:11:14;13.30;99.90
6964;DHT22;3522;50.856;7.278;2023-10-31T12:13:50;13.40;99.90
6964;DHT22;3522;50.856;7.278;2023-10-31T12:16:17;13.50;99.90
6964;DHT22;3522;50.856;7.278;2023-10-31T12:18:44;13.60;99.90
6964;DHT22;3522;50.856;7.278;2023-10-31T12:21:10;13.60;99.90
6964;DHT22;3522;50.856;7.278;2023-10-31T12:23:41;13.70;99.90
6964;DHT22;3522;50.856;7.278;2023-10-31T12:26:08;13.70;99.90
6964;DHT22;3522;50.856;7.278;2023-10-31T12:28:35;13.70;99.90
6964;DHT22;3522;50.856;7.278;2023-10-31T12:31:03;13.70;99.90
6964;DHT22;3522;50.856;7.278;2023-10-31T12:33:30;13.80;99.90
6964;DHT22;3522;50.856;7.278;2023-10-31T12:35:57;13.80;99.90
6964;DHT22;3522;50.856;7.278;2023-10-31T12:38:24;13.80;99.90
6964;DHT22;3522;50.856;7.278;2023-10-31T12:40:52;14.00;99.90
6964;DHT22;3522;50.856;7.278;2023-10-31T12:43:19;14.20;99.90
6964;DHT22;3522;50.856;7.278;2023-10-31T12:45:46;14.30;99.90
6964;DHT22;3522;50.856;7.278;2023-10-31T12:48:13;14.40;99.90
6964;DHT22;3522;50.856;7.278;2023-10-31T12:50:39;14.70;99.90
6964;DHT22;3522;50.856;7.278;2023-10-31T12:53:06;14.50;99.90
6964;DHT22;3522;50.856;7.278;2023-10-31T12:55:37;14.50;99.90
6964;DHT22;3522;50.856;7.278;2023-10-31T12:58:05;14.50;99.90
6964;DHT22;3522;50.856;7.278;2023-10-31T13:00:34;14.40;99.90
6964;DHT22;3522;50.856;7.278;2023-10-31T13:03:02;14.50;99.90
6964;DHT22;3522;50.856;7.278;2023-10-31T13:05:29;14.60;99.90
6964;DHT22;3522;50.856;7.278;2023-10-31T13:07:56;14.60;99.90
6964;DHT22;3522;50.856;7.278;2023-10-31T13:10:25;14.60;99.90
6964;DHT22;3522;50.856;7.278;2023-10-31T13:12:52;14.50;99.90
6964;DHT22;3522;50.856;7.278;2023-10-31T13:15:21;14.40;99.90
6964;DHT22;3522;50.856;7.278;2023-10-31T13:17:48;14.40;99.90
6964;DHT22;3522;50.856;7.278;2023-10-31T13:20:15;14.30;99.90
6964;DHT22;3522;50.856;7.278;2023-10-31T13:22:42;14.30;99.90
6964;DHT22;3522;50.856;7.278;2023-10-31T13:25:09;14.30;99.90
6964;DHT22;3522;50.856;7.278;2023-10-31T13:27:37;14.40;99.90
6964;DHT22;3522;50.856;7.278;2023-10-31T13:30:04;14.50;99.90
6964;DHT22;3522;50.856;7.278;2023-10-31T13:32:32;14.50;99.90
6964;DHT22;3522;50.856;7.278;2023-10-31T13:34:59;14.50;99.90
6964;DHT22;3522;50.856;7.278;2023-10-31T13:37:26;14.50;99.90
6964;DHT22;3522;50.856;7.278;2023-10-31T13:39:55;14.30;99.90
6964;DHT22;3522;50.856;7.278;2023-10-31T13:42:22;14.20;99.90
6964;DHT22;3522;50.856;7.278;2023-10-31T13:44:48;13.90;99.90
6964;DHT22;3522;50.856;7.278;2023-10-31T13:47:15;13.80;99.90
6964;DHT22;3522;50.856;7.278;2023-10-31T13:49:43;13.50;99.90
6964;DHT22;3522;50.856;7.278;2023-10-31T13:52:10;13.40;99.90
6964;DHT22;3522;50.856;7.278;2023-10-31T13:54:37;13.20;99.90
6964;DHT22;3522;50.856;7.278;2023-10-31T13:57:03;13.10;99.90
6964;DHT22;3522;50.856;7.278;2023-10-31T13:59:30;13.10;99.90
6964;DHT22;3522;50.856;7.278;2023-10-31T14:01:57;13.10;99.90
6964;DHT22;3522;50.856;7.278;2023-10-31T14:04:23;13.10;99.90
6964;DHT22;3522;50.856;7.278;2023-10-31T14:06:51;13.10;99.90
6964;DHT22;3522;50.856;7.278;2023-10-31T14:09:18;13.10;99.90
6964;DHT22;3522;50.856;7.278;2023-10-31T14:11:44;13.10;99.90
6964;DHT22;3522;50.856;7.278;2023-10-31T14:14:11;13.10;99.90
6964;DHT22;3522;50.856;7.278;2023-10-31T14:16:39;13.10;99.90
6964;DHT22;3522;50.856;7.278;2023-10-31T14:19:06;13.10;99.90
6964;DHT22;3522;50.856;7.278;2023-10-31T14:21:33;13.20;99.90
6964;DHT22;3522;50.856;7.278;2023-10-31T14:24:01;13.30;99.90
6964;DHT22;3522;50.856;7.278;2023-10-31T14:26:28;13.20;99.90
6964;DHT22;3522;50.856;7.278;2023-10-31T14:28:55;13.20;99.90
6964;DHT22;3522;50.856;7.278;2023-10-31T14:31:22;13.10;99.90
6964;DHT22;3522;50.856;7.278;2023-10-31T14:33:48;13.10;99.90
6964;DHT22;3522;50.856;7.278;2023-10-31T14:36:15;13.00;99.90
6964;DHT22;3522;50.856;7.278;2023-10-31T14:38:42;12.90;99.90
6964;DHT22;3522;50.856;7.278;2023-10-31T14:41:10;12.80;99.90
6964;DHT22;3522;50.856;7.278;2023-10-31T14:43:37;12.80;99.90
6964;DHT22;3522;50.856;7.278;2023-10-31T14:46:03;12.80;99.90
6964;DHT22;3522;50.856;7.278;2023-10-31T14:48:32;12.70;99.90
6964;DHT22;3522;50.856;7.278;2023-10-31T14:50:59;12.80;99.90
6964;DHT22;3522;50.856;7.278;2023-10-31T14:53:26;12.70;99.90
6964;DHT22;3522;50.856;7.278;2023-10-31T14:55:53;12.70;99.90
6964;DHT22;3522;50.856;7.278;2023-10-31T14:58:21;12.70;99.90
6964;DHT22;3522;50.856;7.278;2023-10-31T15:00:47;12.80;99.90
6964;DHT22;3522;50.856;7.278;2023-10-31T15:03:15;12.90;99.90
6964;DHT22;3522;50.856;7.278;2023-10-31T15:05:42;13.00;99.90
6964;DHT22;3522;50.856;7.278;2023-10-31T15:08:08;13.00;99.90
6964;DHT22;3522;50.856;7.278;2023-10-31T15:10:35;13.00;99.90
6964;DHT22;3522;50.856;7.278;2023-10-31T15:13:02;13.00;99.90
6964;DHT22;3522;50.856;7.278;2023-10-31T15:15:30;13.10;99.90
6964;DHT22;3522;50.856;7.278;2023-10-31T15:17:57;13.10;99.90
6964;DHT22;3522;50.856;7.278;2023-10-31T15:20:24;13.00;99.90
6964;DHT22;3522;50.856;7.278;2023-10-31T15:22:51;13.00;99.90
6964;DHT22;3522;50.856;7.278;2023-10-31T15:25:18;13.10;99.90
6964;DHT22;3522;50.856;7.278;2023-10-31T15:27:45;13.00;99.90
6964;DHT22;3522;50.856;7.278;2023-10-31T15:30:11;13.00;99.90
6964;DHT22;3522;50.856;7.278;2023-10-31T15:32:39;12.90;99.90
6964;DHT22;3522;50.856;7.278;2023-10-31T15:35:06;12.90;99.90
6964;DHT22;3522;50.856;7.278;2023-10-31T15:37:33;12.90;99.90
6964;DHT22;3522;50.856;7.278;2023-10-31T15:40:00;12.90;99.90
6964;DHT22;3522;50.856;7.278;2023-10-31T15:42:26;12.80;99.90
6964;DHT22;3522;50.856;7.278;2023-10-31T15:44:53;12.80;99.90
6964;DHT22;3522;50.856;7.278;2023-10-31T15:47:21;12.80;99.90
6964;DHT22;3522;50.856;7.278;2023-10-31T15:49:50;12.80;99.90
6964;DHT22;3522;50.856;7.278;2023-10-31T15:52:16;12.70;99.90
6964;DHT22;3522;50.856;7.278;2023-10-31T15:54:43;12.60;99.90
6964;DHT22;3522;50.856;7.278;2023-10-31T15:57:10;12.60;99.90
6964;DHT22;3522;50.856;7.278;2023-10-31T15:59:36;12.60;99.90